• Join FlightAware (Why Join?)
  • Login
  • US Flag 
01:39PM EST


 

Airport Tracker/Info


-or-


 

Live Flight TrackerFlight Track Log ✈ FIN3126 ✈ 03-Feb-2014 ✈ EGLL / LHR - EFHK / HEL

Flight Track Log - Related Links

Times and Time Zones

All times are in EST time to prevent confusion due to time zone crossing. See the FIN3126 flight status page for this flight to view local times or setup timezone preferences in your user account.

Time Position Orientation Groundspeed Altitude Reporting Facility
EST Latitude Longitude Course Direction KTS MPH feet Rate Location/Type
02:43AM 51.7431 0.0174 48° Northeast  Level Estimated
02:44AM 51.8253 0.1674 48° Northeast  Level Estimated
02:45AM 51.9073 0.3179 49° Northeast  Level Estimated
02:46AM 51.9891 0.4690 49° Northeast  Level Estimated
02:47AM 52.0732 0.6254 49° Northeast  Level Estimated
02:48AM 52.1572 0.7823 49° Northeast  Level Estimated
02:49AM 52.2409 0.9398 49° Northeast  Level Estimated
02:50AM 52.3244 1.0980 49° Northeast  Level Estimated
02:51AM 52.4077 1.2567 49° Northeast  Level Estimated
02:52AM 52.4907 1.4160 49° Northeast  Level Estimated
02:53AM 52.5736 1.5759 50° Northeast  Level Estimated
02:54AM 52.6562 1.7364 50° Northeast  Level Estimated
02:55AM 52.7387 1.8975 50° Northeast  Level Estimated
02:56AM 52.8209 2.0593 50° Northeast  Level Estimated
02:57AM 52.9028 2.2216 50° Northeast  Level Estimated
02:58AM 52.9846 2.3846 50° Northeast  Level Estimated
02:59AM 53.0661 2.5482 50° Northeast  Level Estimated
03:00AM 53.1474 2.7124 50° Northeast  Level Estimated
03:01AM 53.2285 2.8772 51° Northeast  Level Estimated
03:02AM 53.3094 3.0426 51° Northeast  Level Estimated
03:03AM 53.3900 3.2087 51° Northeast  Level Estimated
03:04AM 53.4704 3.3754 51° Northeast  Level Estimated
03:05AM 53.5506 3.5428 51° Northeast  Level Estimated
03:06AM 53.6305 3.7107 51° Northeast  Level Estimated
03:07AM 53.7102 3.8793 51° Northeast  Level Estimated
03:08AM 53.7897 4.0486 51° Northeast  Level Estimated
03:09AM 53.8689 4.2185 52° Northeast  Level Estimated
03:10AM 53.9479 4.3890 52° Northeast  Level Estimated
03:11AM 54.0266 4.5602 52° Northeast  Level Estimated
03:12AM 54.1051 4.7320 52° Northeast  Level Estimated
03:13AM 54.1833 4.9045 52° Northeast  Level Estimated
03:14AM 54.2613 5.0776 52° Northeast  Level Estimated
03:15AM 54.3391 5.2514 52° Northeast  Level Estimated
03:16AM 54.4166 5.4259 53° Northeast  Level Estimated
03:17AM 54.4938 5.6010 53° Northeast  Level Estimated
03:18AM 54.5708 5.7767 53° Northeast  Level Estimated
03:19AM 54.6475 5.9531 53° Northeast  Level Estimated
03:20AM 54.7240 6.1302 53° Northeast  Level Estimated
03:21AM 54.8002 6.3080 53° Northeast  Level Estimated
03:22AM 54.8762 6.4864 53° Northeast  Level Estimated
03:23AM 54.9519 6.6655 54° Northeast  Level Estimated
03:24AM 55.0273 6.8453 54° Northeast  Level Estimated
03:25AM 55.1025 7.0258 54° Northeast  Level Estimated
03:26AM 55.1774 7.2069 54° Northeast  Level Estimated
03:27AM 55.2520 7.3887 54° Northeast  Level Estimated
03:28AM 55.3264 7.5712 54° Northeast  Level Estimated
03:29AM 55.4005 7.7544 54° Northeast  Level Estimated
03:30AM 55.4743 7.9383 55° Northeast  Level Estimated
03:31AM 55.5478 8.1229 55° Northeast  Level Estimated
03:32AM 55.6211 8.3081 55° Northeast  Level Estimated
03:33AM 55.6940 8.4941 55° Northeast  Level Estimated
03:34AM 55.7667 8.6807 55° Northeast  Level Estimated
03:35AM 55.8391 8.8680 55° Northeast  Level Estimated
03:36AM 55.9112 9.0561 56° Northeast  Level Estimated
03:37AM 55.9831 9.2448 56° Northeast  Level Estimated
03:38AM 56.0546 9.4342 56° Northeast  Level Estimated
03:39AM 56.1259 9.6243 56° Northeast  Level Estimated
03:40AM 56.1968 9.8152 56° Northeast  Level Estimated
03:41AM 56.2675 10.0067 56° Northeast  Level Estimated
03:42AM 56.3379 10.1990 57° Northeast  Level Estimated
03:43AM 56.4079 10.3919 57° Northeast  Level Estimated
03:44AM 56.4777 10.5856 57° Northeast  Level Estimated
03:45AM 56.5472 10.7800 57° Northeast  Level Estimated
03:46AM 56.6163 10.9751 57° Northeast  Level Estimated
03:47AM 56.6852 11.1709 57° Northeast  Level Estimated
03:48AM 56.7537 11.3674 57° Northeast  Level Estimated
03:49AM 56.8220 11.5647 58° Northeast  Level Estimated
03:50AM 56.8899 11.7626 58° Northeast  Level Estimated
03:51AM 56.9575 11.9613 58° Northeast  Level Estimated
03:52AM 57.0248 12.1607 58° Northeast  Level Estimated
03:53AM 57.0918 12.3608 58° Northeast  Level Estimated
03:54AM 57.1585 12.5617 58° Northeast  Level Estimated
03:55AM 57.2248 12.7632 59° Northeast  Level Estimated
03:56AM 57.2908 12.9655 59° Northeast  Level Estimated
03:57AM 57.3565 13.1685 59° Northeast  Level Estimated
03:58AM 57.4219 13.3723 59° Northeast  Level Estimated
03:59AM 57.4869 13.5768 59° Northeast  Level Estimated
04:00AM 57.5516 13.7820 59° Northeast  Level Estimated
04:01AM 57.6160 13.9879 60° Northeast  Level Estimated
04:02AM 57.6800 14.1945 60° Northeast  Level Estimated
04:03AM 57.7437 14.4019 60° Northeast  Level Estimated
04:04AM 57.8070 14.6101 60° Northeast  Level Estimated
04:05AM 57.8696 14.8173 60° Northeast  Level Estimated
04:06AM 57.9318 15.0253 61° Northeast  Level Estimated
04:07AM 57.9936 15.2340 61° Northeast  Level Estimated
04:08AM 58.0551 15.4434 61° Northeast  Level Estimated
04:09AM 58.1163 15.6535 61° Northeast  Level Estimated
04:10AM 58.1771 15.8644 61° Northeast  Level Estimated
04:11AM 58.2375 16.0759 61° Northeast  Level Estimated
04:12AM 58.2976 16.2882 62° Northeast  Level Estimated
04:13AM 58.3574 16.5012 62° Northeast  Level Estimated
04:14AM 58.4168 16.7150 62° Northeast  Level Estimated
04:15AM 58.4759 16.9294 62° Northeast  Level Estimated
04:16AM 58.5345 17.1446 62° Northeast  Level Estimated
04:17AM 58.5929 17.3605 63° Northeast  Level Estimated
04:18AM 58.6508 17.5771 63° Northeast  Level Estimated
04:19AM 58.7085 17.7944 63° Northeast  Level Estimated
04:20AM 58.7657 18.0124 63° Northeast  Level Estimated
04:21AM 58.8225 18.2312 63° Northeast  Level Estimated
04:22AM 58.8790 18.4507 63° Northeast  Level Estimated
04:23AM 58.9352 18.6709 64° Northeast  Level Estimated
04:24AM 58.9909 18.8918 64° Northeast  Level Estimated
04:25AM 59.0463 19.1134 64° Northeast  Level Estimated
04:26AM 59.1012 19.3358 64° Northeast  Level Estimated
04:27AM 59.1559 19.5588 64° Northeast  Level Estimated
04:28AM 59.2101 19.7826 65° Northeast  Level Estimated
04:29AM 59.2639 20.0070 65° Northeast  Level Estimated
04:30AM 59.3174 20.2322 65° Northeast  Level Estimated
04:31AM 59.3704 20.4581 65° Northeast  Level Estimated
04:32AM 59.4231 20.6847 65° Northeast  Level Estimated
04:33AM 59.4754 20.9120 66° East  Level Estimated
04:34AM 59.5273 21.1399 66° East  Level Estimated
04:35AM 59.5787 21.3686 66° East  Level Estimated
04:36AM 59.6298 21.5980 66° East  Level Estimated
04:37AM 59.6805 21.8281 66° East  Level Estimated
04:38AM 59.7308 22.0589 67° East  Level Estimated
04:39AM 59.7807 22.2904 67° East  Level Estimated
04:40AM 59.8301 22.5225 67° East  Level Estimated
04:41AM 59.8792 22.7554 67° East  Level Estimated
04:42AM 59.9278 22.9889 67° East  Level Estimated
04:43AM 59.9760 23.2231 68° East  Level Estimated
04:44AM 60.0238 23.4580 68° East  Level Estimated
04:45AM 60.0712 23.6936 68° East  Level Estimated
04:46AM 60.1182 23.9299 68° East  Level Estimated
04:47AM 60.1647 24.1668 68° East  Level Estimated
04:48AM 60.2109 24.4044 69° East  Level Estimated
04:49AM 60.2566 24.6426 69° East  Level Estimated
04:50AM 60.3018 24.8816 69° East  Level Estimated
04:51AM 60.3172 24.9633 69° East  Level Estimated
04:52AM 60.3172 24.9633 37° Northeast  Level Estimated
04:53AM 60.3172 24.9633 37° Northeast  Level Estimated
04:54AM 60.3172 24.9633 37° Northeast  Level Estimated
04:55AM 60.3172 24.9633 37° Northeast  Level Estimated
04:56AM 60.3172 24.9633 37° Northeast  Level Estimated
04:57AM 60.3172 24.9633 37° Northeast  Level Estimated
04:58AM 60.3172 24.9633 37° Northeast  Level Estimated
04:59AM 60.3172 24.9633 37° Northeast  Level Estimated
05:00AM 60.3172 24.9633 37° Northeast  Level Estimated
05:01AM 60.3172 24.9633 37° Northeast  Level Estimated
05:02AM 60.3172 24.9633 37° Northeast  Level Estimated
05:03AM 60.3172 24.9633 37° Northeast  Level Estimated
05:04AM 60.3172 24.9633 37° Northeast  Level Estimated
05:05AM 60.3172 24.9633 37° Northeast  Level Estimated
05:06AM 60.3172 24.9633 37° Northeast  Level Estimated